sensor_id;sensor_type;location;lat;lon;timestamp;P1;durP1;ratioP1;P2;durP2;ratioP2
65583;SDS011;62116;43.582;1.470;2022-07-22T00:00:50;7.95;;;3.80;;
65583;SDS011;62116;43.582;1.470;2022-07-22T00:03:16;6.53;;;3.33;;
65583;SDS011;62116;43.582;1.470;2022-07-22T00:05:41;6.43;;;3.78;;
65583;SDS011;62116;43.582;1.470;2022-07-22T00:08:07;5.30;;;3.53;;
65583;SDS011;62116;43.582;1.470;2022-07-22T00:10:32;5.43;;;3.58;;
65583;SDS011;62116;43.582;1.470;2022-07-22T00:12:58;6.18;;;3.80;;
65583;SDS011;62116;43.582;1.470;2022-07-22T00:15:23;10.55;;;3.92;;
65583;SDS011;62116;43.582;1.470;2022-07-22T00:17:48;5.75;;;3.47;;
65583;SDS011;62116;43.582;1.470;2022-07-22T00:20:14;7.32;;;3.53;;
65583;SDS011;62116;43.582;1.470;2022-07-22T00:22:39;7.47;;;3.80;;
65583;SDS011;62116;43.582;1.470;2022-07-22T00:25:05;7.65;;;4.07;;
65583;SDS011;62116;43.582;1.470;2022-07-22T00:27:31;6.68;;;3.63;;
65583;SDS011;62116;43.582;1.470;2022-07-22T00:29:56;7.15;;;4.22;;
65583;SDS011;62116;43.582;1.470;2022-07-22T00:32:22;8.93;;;4.30;;
65583;SDS011;62116;43.582;1.470;2022-07-22T00:34:47;6.90;;;4.05;;
65583;SDS011;62116;43.582;1.470;2022-07-22T00:37:13;8.60;;;4.03;;
65583;SDS011;62116;43.582;1.470;2022-07-22T00:39:38;7.70;;;4.10;;
65583;SDS011;62116;43.582;1.470;2022-07-22T00:42:04;11.25;;;4.18;;
65583;SDS011;62116;43.582;1.470;2022-07-22T00:44:29;7.65;;;4.65;;
65583;SDS011;62116;43.582;1.470;2022-07-22T00:46:55;11.45;;;4.57;;
65583;SDS011;62116;43.582;1.470;2022-07-22T00:49:20;8.20;;;4.35;;
65583;SDS011;62116;43.582;1.470;2022-07-22T00:51:46;8.02;;;4.40;;
65583;SDS011;62116;43.582;1.470;2022-07-22T00:54:11;7.47;;;4.90;;
65583;SDS011;62116;43.582;1.470;2022-07-22T00:56:37;9.13;;;4.90;;
65583;SDS011;62116;43.582;1.470;2022-07-22T00:59:04;11.98;;;4.93;;
65583;SDS011;62116;43.582;1.470;2022-07-22T01:01:33;8.23;;;4.75;;
65583;SDS011;62116;43.582;1.470;2022-07-22T01:03:58;7.97;;;4.93;;
65583;SDS011;62116;43.582;1.470;2022-07-22T01:06:24;8.52;;;4.80;;
65583;SDS011;62116;43.582;1.470;2022-07-22T01:08:49;6.75;;;4.72;;
65583;SDS011;62116;43.582;1.470;2022-07-22T01:11:16;10.38;;;4.50;;
65583;SDS011;62116;43.582;1.470;2022-07-22T01:13:43;6.90;;;4.53;;
65583;SDS011;62116;43.582;1.470;2022-07-22T01:16:10;9.85;;;4.90;;
65583;SDS011;62116;43.582;1.470;2022-07-22T01:18:36;9.52;;;4.70;;
65583;SDS011;62116;43.582;1.470;2022-07-22T01:21:03;8.82;;;4.53;;
65583;SDS011;62116;43.582;1.470;2022-07-22T01:23:29;9.73;;;4.75;;
65583;SDS011;62116;43.582;1.470;2022-07-22T01:25:55;8.93;;;4.43;;
65583;SDS011;62116;43.582;1.470;2022-07-22T01:28:20;8.52;;;4.55;;
65583;SDS011;62116;43.582;1.470;2022-07-22T01:30:46;10.18;;;4.50;;
65583;SDS011;62116;43.582;1.470;2022-07-22T01:33:12;8.00;;;4.65;;
65583;SDS011;62116;43.582;1.470;2022-07-22T01:35:37;12.13;;;4.82;;
65583;SDS011;62116;43.582;1.470;2022-07-22T01:38:03;7.53;;;4.55;;
65583;SDS011;62116;43.582;1.470;2022-07-22T01:40:28;9.50;;;5.13;;
65583;SDS011;62116;43.582;1.470;2022-07-22T01:42:54;8.52;;;4.78;;
65583;SDS011;62116;43.582;1.470;2022-07-22T01:45:19;7.55;;;4.38;;
65583;SDS011;62116;43.582;1.470;2022-07-22T01:47:45;7.82;;;4.88;;
65583;SDS011;62116;43.582;1.470;2022-07-22T01:50:10;8.95;;;4.72;;
65583;SDS011;62116;43.582;1.470;2022-07-22T01:52:37;10.15;;;4.55;;
65583;SDS011;62116;43.582;1.470;2022-07-22T01:55:04;7.90;;;4.47;;
65583;SDS011;62116;43.582;1.470;2022-07-22T01:57:33;10.57;;;4.75;;
65583;SDS011;62116;43.582;1.470;2022-07-22T02:00:01;7.88;;;4.80;;
65583;SDS011;62116;43.582;1.470;2022-07-22T02:02:28;8.57;;;4.30;;
65583;SDS011;62116;43.582;1.470;2022-07-22T02:04:54;8.18;;;4.30;;
65583;SDS011;62116;43.582;1.470;2022-07-22T02:07:19;7.65;;;4.57;;
65583;SDS011;62116;43.582;1.470;2022-07-22T02:09:44;11.07;;;4.70;;
65583;SDS011;62116;43.582;1.470;2022-07-22T02:12:10;12.15;;;4.57;;
65583;SDS011;62116;43.582;1.470;2022-07-22T02:14:35;7.15;;;4.15;;
65583;SDS011;62116;43.582;1.470;2022-07-22T02:17:01;10.25;;;4.30;;
65583;SDS011;62116;43.582;1.470;2022-07-22T02:19:26;7.57;;;4.30;;
65583;SDS011;62116;43.582;1.470;2022-07-22T02:21:52;9.38;;;4.15;;
65583;SDS011;62116;43.582;1.470;2022-07-22T02:24:18;7.63;;;4.20;;
65583;SDS011;62116;43.582;1.470;2022-07-22T02:26:43;7.43;;;4.05;;
65583;SDS011;62116;43.582;1.470;2022-07-22T02:29:09;8.48;;;3.95;;
65583;SDS011;62116;43.582;1.470;2022-07-22T02:31:34;8.65;;;4.13;;
65583;SDS011;62116;43.582;1.470;2022-07-22T02:33:59;6.72;;;3.90;;
65583;SDS011;62116;43.582;1.470;2022-07-22T02:36:25;6.07;;;3.60;;
65583;SDS011;62116;43.582;1.470;2022-07-22T02:38:51;6.00;;;3.85;;
65583;SDS011;62116;43.582;1.470;2022-07-22T02:41:16;6.57;;;3.55;;
65583;SDS011;62116;43.582;1.470;2022-07-22T02:43:42;7.10;;;3.83;;
65583;SDS011;62116;43.582;1.470;2022-07-22T02:46:07;7.65;;;3.70;;
65583;SDS011;62116;43.582;1.470;2022-07-22T02:48:33;6.47;;;3.58;;
65583;SDS011;62116;43.582;1.470;2022-07-22T02:50:59;5.68;;;3.70;;
65583;SDS011;62116;43.582;1.470;2022-07-22T02:53:24;5.90;;;3.88;;
65583;SDS011;62116;43.582;1.470;2022-07-22T02:55:50;5.43;;;3.70;;
65583;SDS011;62116;43.582;1.470;2022-07-22T02:58:15;6.25;;;3.85;;
65583;SDS011;62116;43.582;1.470;2022-07-22T03:00:41;6.47;;;3.60;;
65583;SDS011;62116;43.582;1.470;2022-07-22T03:03:06;7.47;;;3.67;;
65583;SDS011;62116;43.582;1.470;2022-07-22T03:05:32;7.50;;;3.70;;
65583;SDS011;62116;43.582;1.470;2022-07-22T03:07:57;7.57;;;3.75;;
65583;SDS011;62116;43.582;1.470;2022-07-22T03:10:23;7.70;;;4.20;;
65583;SDS011;62116;43.582;1.470;2022-07-22T03:12:48;9.88;;;4.15;;
65583;SDS011;62116;43.582;1.470;2022-07-22T03:15:14;8.38;;;4.30;;
65583;SDS011;62116;43.582;1.470;2022-07-22T03:17:39;7.85;;;3.90;;
65583;SDS011;62116;43.582;1.470;2022-07-22T03:20:05;6.85;;;4.50;;
65583;SDS011;62116;43.582;1.470;2022-07-22T03:22:33;8.35;;;4.53;;
65583;SDS011;62116;43.582;1.470;2022-07-22T03:24:59;10.23;;;4.25;;
65583;SDS011;62116;43.582;1.470;2022-07-22T03:27:24;10.00;;;4.50;;
65583;SDS011;62116;43.582;1.470;2022-07-22T03:29:50;10.02;;;4.50;;
65583;SDS011;62116;43.582;1.470;2022-07-22T03:32:16;9.27;;;4.57;;
65583;SDS011;62116;43.582;1.470;2022-07-22T03:34:41;12.23;;;4.80;;
65583;SDS011;62116;43.582;1.470;2022-07-22T03:37:07;6.82;;;4.35;;
65583;SDS011;62116;43.582;1.470;2022-07-22T03:39:32;7.65;;;4.57;;
65583;SDS011;62116;43.582;1.470;2022-07-22T03:41:57;9.85;;;4.32;;
65583;SDS011;62116;43.582;1.470;2022-07-22T03:44:23;12.25;;;4.13;;
65583;SDS011;62116;43.582;1.470;2022-07-22T03:46:48;9.00;;;4.40;;
65583;SDS011;62116;43.582;1.470;2022-07-22T03:49:14;6.95;;;4.30;;
65583;SDS011;62116;43.582;1.470;2022-07-22T03:51:39;9.65;;;4.40;;
65583;SDS011;62116;43.582;1.470;2022-07-22T03:54:05;10.75;;;4.63;;
65583;SDS011;62116;43.582;1.470;2022-07-22T03:56:31;10.88;;;4.45;;
65583;SDS011;62116;43.582;1.470;2022-07-22T03:58:56;7.63;;;4.28;;
65583;SDS011;62116;43.582;1.470;2022-07-22T04:01:21;8.95;;;4.78;;
65583;SDS011;62116;43.582;1.470;2022-07-22T04:03:47;10.07;;;4.75;;
65583;SDS011;62116;43.582;1.470;2022-07-22T04:06:13;8.73;;;4.70;;
65583;SDS011;62116;43.582;1.470;2022-07-22T04:08:39;7.85;;;4.50;;
65583;SDS011;62116;43.582;1.470;2022-07-22T04:11:04;8.07;;;4.25;;
65583;SDS011;62116;43.582;1.470;2022-07-22T04:13:30;8.93;;;4.55;;
65583;SDS011;62116;43.582;1.470;2022-07-22T04:15:55;10.73;;;4.32;;
65583;SDS011;62116;43.582;1.470;2022-07-22T04:18:21;9.27;;;4.70;;
65583;SDS011;62116;43.582;1.470;2022-07-22T04:20:46;11.07;;;4.95;;
65583;SDS011;62116;43.582;1.470;2022-07-22T04:23:12;8.88;;;4.60;;
65583;SDS011;62116;43.582;1.470;2022-07-22T04:25:37;7.40;;;4.40;;
65583;SDS011;62116;43.582;1.470;2022-07-22T04:28:03;14.18;;;4.88;;
65583;SDS011;62116;43.582;1.470;2022-07-22T04:30:29;7.57;;;4.50;;
65583;SDS011;62116;43.582;1.470;2022-07-22T04:32:54;8.95;;;4.38;;
65583;SDS011;62116;43.582;1.470;2022-07-22T04:35:20;9.65;;;4.65;;
65583;SDS011;62116;43.582;1.470;2022-07-22T04:37:45;12.90;;;4.97;;
65583;SDS011;62116;43.582;1.470;2022-07-22T04:40:11;9.23;;;4.80;;
65583;SDS011;62116;43.582;1.470;2022-07-22T04:42:36;9.82;;;4.30;;
65583;SDS011;62116;43.582;1.470;2022-07-22T04:45:02;7.55;;;4.53;;
65583;SDS011;62116;43.582;1.470;2022-07-22T04:47:28;7.72;;;4.47;;
65583;SDS011;62116;43.582;1.470;2022-07-22T04:49:53;11.23;;;4.60;;
65583;SDS011;62116;43.582;1.470;2022-07-22T04:52:19;10.98;;;4.57;;
65583;SDS011;62116;43.582;1.470;2022-07-22T04:54:44;8.77;;;4.20;;
65583;SDS011;62116;43.582;1.470;2022-07-22T04:57:09;10.13;;;4.90;;
65583;SDS011;62116;43.582;1.470;2022-07-22T04:59:35;9.07;;;4.45;;
65583;SDS011;62116;43.582;1.470;2022-07-22T05:02:01;7.85;;;4.30;;
65583;SDS011;62116;43.582;1.470;2022-07-22T05:04:26;12.95;;;4.38;;
65583;SDS011;62116;43.582;1.470;2022-07-22T05:06:52;7.85;;;4.18;;
65583;SDS011;62116;43.582;1.470;2022-07-22T05:09:17;9.43;;;4.50;;
65583;SDS011;62116;43.582;1.470;2022-07-22T05:11:42;9.38;;;4.00;;
65583;SDS011;62116;43.582;1.470;2022-07-22T05:14:08;8.13;;;4.20;;
65583;SDS011;62116;43.582;1.470;2022-07-22T05:16:35;8.07;;;4.35;;
65583;SDS011;62116;43.582;1.470;2022-07-22T05:19:02;10.73;;;4.25;;
65583;SDS011;62116;43.582;1.470;2022-07-22T05:21:28;10.98;;;4.32;;
65583;SDS011;62116;43.582;1.470;2022-07-22T05:23:53;8.23;;;3.88;;
65583;SDS011;62116;43.582;1.470;2022-07-22T05:26:19;8.20;;;4.00;;
65583;SDS011;62116;43.582;1.470;2022-07-22T05:28:44;7.90;;;4.05;;
65583;SDS011;62116;43.582;1.470;2022-07-22T05:31:09;7.18;;;4.32;;
65583;SDS011;62116;43.582;1.470;2022-07-22T05:33:35;8.45;;;4.20;;
65583;SDS011;62116;43.582;1.470;2022-07-22T05:36:00;9.57;;;3.97;;
65583;SDS011;62116;43.582;1.470;2022-07-22T05:38:27;17.50;;;4.50;;
65583;SDS011;62116;43.582;1.470;2022-07-22T05:40:53;7.55;;;4.20;;
65583;SDS011;62116;43.582;1.470;2022-07-22T05:43:18;8.65;;;4.10;;
65583;SDS011;62116;43.582;1.470;2022-07-22T05:45:44;7.70;;;4.40;;
65583;SDS011;62116;43.582;1.470;2022-07-22T05:48:09;10.77;;;4.55;;
65583;SDS011;62116;43.582;1.470;2022-07-22T05:50:35;8.00;;;4.30;;
65583;SDS011;62116;43.582;1.470;2022-07-22T05:53:01;10.95;;;4.40;;
65583;SDS011;62116;43.582;1.470;2022-07-22T05:55:26;10.60;;;4.18;;
65583;SDS011;62116;43.582;1.470;2022-07-22T05:57:51;10.15;;;4.53;;
65583;SDS011;62116;43.582;1.470;2022-07-22T06:00:17;10.02;;;4.13;;
65583;SDS011;62116;43.582;1.470;2022-07-22T06:02:42;9.63;;;4.32;;
65583;SDS011;62116;43.582;1.470;2022-07-22T06:05:08;13.93;;;4.65;;
65583;SDS011;62116;43.582;1.470;2022-07-22T06:07:33;8.57;;;4.32;;
65583;SDS011;62116;43.582;1.470;2022-07-22T06:09:59;8.38;;;4.20;;
65583;SDS011;62116;43.582;1.470;2022-07-22T06:12:24;12.07;;;4.50;;
65583;SDS011;62116;43.582;1.470;2022-07-22T06:14:50;12.65;;;4.35;;
65583;SDS011;62116;43.582;1.470;2022-07-22T06:17:15;12.45;;;4.40;;
65583;SDS011;62116;43.582;1.470;2022-07-22T06:19:40;9.80;;;4.32;;
65583;SDS011;62116;43.582;1.470;2022-07-22T06:22:06;12.43;;;4.45;;
65583;SDS011;62116;43.582;1.470;2022-07-22T06:24:31;9.45;;;4.43;;
65583;SDS011;62116;43.582;1.470;2022-07-22T06:26:57;9.98;;;4.75;;
65583;SDS011;62116;43.582;1.470;2022-07-22T06:29:22;11.07;;;4.65;;
65583;SDS011;62116;43.582;1.470;2022-07-22T06:31:47;9.77;;;4.38;;
65583;SDS011;62116;43.582;1.470;2022-07-22T06:34:13;14.98;;;4.65;;
65583;SDS011;62116;43.582;1.470;2022-07-22T06:36:39;10.38;;;4.50;;
65583;SDS011;62116;43.582;1.470;2022-07-22T06:39:04;10.35;;;4.45;;
65583;SDS011;62116;43.582;1.470;2022-07-22T06:41:30;12.05;;;4.75;;
65583;SDS011;62116;43.582;1.470;2022-07-22T06:43:55;13.55;;;4.43;;
65583;SDS011;62116;43.582;1.470;2022-07-22T06:46:21;16.42;;;5.25;;
65583;SDS011;62116;43.582;1.470;2022-07-22T06:48:46;11.95;;;4.80;;
65583;SDS011;62116;43.582;1.470;2022-07-22T06:51:12;13.13;;;4.70;;
65583;SDS011;62116;43.582;1.470;2022-07-22T06:53:37;11.40;;;4.70;;
65583;SDS011;62116;43.582;1.470;2022-07-22T06:56:03;14.02;;;4.97;;
65583;SDS011;62116;43.582;1.470;2022-07-22T06:58:29;13.32;;;4.95;;
65583;SDS011;62116;43.582;1.470;2022-07-22T07:00:54;20.35;;;5.20;;
65583;SDS011;62116;43.582;1.470;2022-07-22T07:03:20;13.13;;;4.60;;
65583;SDS011;62116;43.582;1.470;2022-07-22T07:05:46;14.65;;;4.65;;
65583;SDS011;62116;43.582;1.470;2022-07-22T07:08:12;14.80;;;4.47;;
65583;SDS011;62116;43.582;1.470;2022-07-22T07:10:37;12.40;;;4.70;;
65583;SDS011;62116;43.582;1.470;2022-07-22T07:13:03;10.13;;;4.40;;
65583;SDS011;62116;43.582;1.470;2022-07-22T07:15:28;13.27;;;4.45;;
65583;SDS011;62116;43.582;1.470;2022-07-22T07:17:54;14.02;;;5.10;;
65583;SDS011;62116;43.582;1.470;2022-07-22T07:20:21;12.02;;;4.65;;
65583;SDS011;62116;43.582;1.470;2022-07-22T07:22:47;10.93;;;4.82;;
65583;SDS011;62116;43.582;1.470;2022-07-22T07:25:13;11.65;;;4.50;;
65583;SDS011;62116;43.582;1.470;2022-07-22T07:27:38;12.93;;;4.93;;
65583;SDS011;62116;43.582;1.470;2022-07-22T07:30:04;14.00;;;4.90;;
65583;SDS011;62116;43.582;1.470;2022-07-22T07:32:31;10.38;;;4.95;;
65583;SDS011;62116;43.582;1.470;2022-07-22T07:34:57;13.30;;;4.65;;
65583;SDS011;62116;43.582;1.470;2022-07-22T07:37:22;13.40;;;4.88;;
65583;SDS011;62116;43.582;1.470;2022-07-22T07:39:48;13.02;;;4.70;;
65583;SDS011;62116;43.582;1.470;2022-07-22T07:42:13;14.40;;;4.53;;
65583;SDS011;62116;43.582;1.470;2022-07-22T07:44:39;16.83;;;5.03;;
65583;SDS011;62116;43.582;1.470;2022-07-22T07:47:04;12.52;;;4.57;;
65583;SDS011;62116;43.582;1.470;2022-07-22T07:49:30;10.45;;;4.32;;
65583;SDS011;62116;43.582;1.470;2022-07-22T07:51:55;10.95;;;4.50;;
65583;SDS011;62116;43.582;1.470;2022-07-22T07:54:21;11.60;;;4.25;;
65583;SDS011;62116;43.582;1.470;2022-07-22T07:56:46;12.25;;;4.60;;
65583;SDS011;62116;43.582;1.470;2022-07-22T07:59:12;14.82;;;4.72;;
65583;SDS011;62116;43.582;1.470;2022-07-22T08:01:37;12.68;;;4.40;;
65583;SDS011;62116;43.582;1.470;2022-07-22T08:04:03;13.40;;;4.88;;
65583;SDS011;62116;43.582;1.470;2022-07-22T08:06:29;11.63;;;4.88;;
65583;SDS011;62116;43.582;1.470;2022-07-22T08:08:54;12.18;;;4.47;;
65583;SDS011;62116;43.582;1.470;2022-07-22T08:11:20;14.50;;;4.90;;
65583;SDS011;62116;43.582;1.470;2022-07-22T08:13:45;11.60;;;4.82;;
65583;SDS011;62116;43.582;1.470;2022-07-22T08:16:11;13.48;;;4.72;;
65583;SDS011;62116;43.582;1.470;2022-07-22T08:18:36;10.73;;;4.68;;
65583;SDS011;62116;43.582;1.470;2022-07-22T08:21:02;14.55;;;4.80;;
65583;SDS011;62116;43.582;1.470;2022-07-22T08:23:27;11.27;;;4.43;;
65583;SDS011;62116;43.582;1.470;2022-07-22T08:25:53;11.75;;;4.78;;
65583;SDS011;62116;43.582;1.470;2022-07-22T08:28:18;14.32;;;5.10;;
65583;SDS011;62116;43.582;1.470;2022-07-22T08:30:44;11.52;;;4.80;;
65583;SDS011;62116;43.582;1.470;2022-07-22T08:33:09;14.05;;;4.60;;
65583;SDS011;62116;43.582;1.470;2022-07-22T08:35:35;10.98;;;4.68;;
65583;SDS011;62116;43.582;1.470;2022-07-22T08:38:00;12.35;;;4.35;;
65583;SDS011;62116;43.582;1.470;2022-07-22T08:40:26;12.38;;;4.60;;
65583;SDS011;62116;43.582;1.470;2022-07-22T08:42:51;10.45;;;4.43;;
65583;SDS011;62116;43.582;1.470;2022-07-22T08:45:17;12.23;;;4.72;;
65583;SDS011;62116;43.582;1.470;2022-07-22T08:47:47;17.38;;;5.00;;
65583;SDS011;62116;43.582;1.470;2022-07-22T08:50:15;12.45;;;4.50;;
65583;SDS011;62116;43.582;1.470;2022-07-22T08:52:41;10.65;;;4.32;;
65583;SDS011;62116;43.582;1.470;2022-07-22T08:55:06;10.82;;;4.60;;
65583;SDS011;62116;43.582;1.470;2022-07-22T08:57:33;9.95;;;4.45;;
65583;SDS011;62116;43.582;1.470;2022-07-22T08:59:59;13.20;;;4.68;;
65583;SDS011;62116;43.582;1.470;2022-07-22T09:02:26;14.75;;;5.05;;
65583;SDS011;62116;43.582;1.470;2022-07-22T09:04:55;10.15;;;4.60;;
65583;SDS011;62116;43.582;1.470;2022-07-22T09:10:00;9.32;;;4.63;;
65583;SDS011;62116;43.582;1.470;2022-07-22T09:12:26;11.02;;;4.90;;
65583;SDS011;62116;43.582;1.470;2022-07-22T09:14:57;12.63;;;4.80;;
65583;SDS011;62116;43.582;1.470;2022-07-22T09:19:59;12.90;;;4.95;;
65583;SDS011;62116;43.582;1.470;2022-07-22T09:22:32;8.60;;;5.05;;
65583;SDS011;62116;43.582;1.470;2022-07-22T09:25:22;9.95;;;4.90;;
65583;SDS011;62116;43.582;1.470;2022-07-22T09:30:30;9.93;;;4.32;;
65583;SDS011;62116;43.582;1.470;2022-07-22T09:32:55;11.75;;;5.32;;
65583;SDS011;62116;43.582;1.470;2022-07-22T09:35:22;11.55;;;4.68;;
65583;SDS011;62116;43.582;1.470;2022-07-22T09:40:21;11.20;;;4.90;;
65583;SDS011;62116;43.582;1.470;2022-07-22T09:42:56;10.20;;;4.70;;
65583;SDS011;62116;43.582;1.470;2022-07-22T09:45:24;14.75;;;4.90;;
65583;SDS011;62116;43.582;1.470;2022-07-22T09:47:50;9.25;;;4.68;;
65583;SDS011;62116;43.582;1.470;2022-07-22T09:50:20;9.77;;;4.28;;
65583;SDS011;62116;43.582;1.470;2022-07-22T09:52:46;10.60;;;4.57;;
65583;SDS011;62116;43.582;1.470;2022-07-22T09:55:14;8.57;;;4.80;;
65583;SDS011;62116;43.582;1.470;2022-07-22T09:57:40;10.15;;;4.60;;
65583;SDS011;62116;43.582;1.470;2022-07-22T10:00:06;10.95;;;4.63;;
65583;SDS011;62116;43.582;1.470;2022-07-22T10:02:45;9.52;;;4.70;;
65583;SDS011;62116;43.582;1.470;2022-07-22T10:05:11;11.23;;;4.45;;
65583;SDS011;62116;43.582;1.470;2022-07-22T10:07:38;11.80;;;4.68;;
65583;SDS011;62116;43.582;1.470;2022-07-22T10:10:09;7.57;;;4.25;;
65583;SDS011;62116;43.582;1.470;2022-07-22T10:12:37;9.82;;;4.55;;
65583;SDS011;62116;43.582;1.470;2022-07-22T10:15:03;9.65;;;4.43;;
65583;SDS011;62116;43.582;1.470;2022-07-22T10:17:29;11.00;;;4.88;;
65583;SDS011;62116;43.582;1.470;2022-07-22T10:19:56;12.70;;;4.30;;
65583;SDS011;62116;43.582;1.470;2022-07-22T10:25:11;7.28;;;4.60;;
65583;SDS011;62116;43.582;1.470;2022-07-22T10:30:17;8.45;;;4.10;;
65583;SDS011;62116;43.582;1.470;2022-07-22T10:32:44;11.00;;;4.60;;
65583;SDS011;62116;43.582;1.470;2022-07-22T10:45:34;9.70;;;4.80;;
65583;SDS011;62116;43.582;1.470;2022-07-22T10:48:10;10.45;;;4.72;;
65583;SDS011;62116;43.582;1.470;2022-07-22T10:50:40;9.90;;;4.50;;
65583;SDS011;62116;43.582;1.470;2022-07-22T10:53:08;11.82;;;4.30;;
65583;SDS011;62116;43.582;1.470;2022-07-22T10:55:33;10.43;;;4.18;;
65583;SDS011;62116;43.582;1.470;2022-07-22T10:58:00;10.77;;;4.45;;
65583;SDS011;62116;43.582;1.470;2022-07-22T11:00:26;14.35;;;4.30;;
65583;SDS011;62116;43.582;1.470;2022-07-22T11:02:52;10.82;;;4.28;;
65583;SDS011;62116;43.582;1.470;2022-07-22T11:05:27;9.45;;;4.25;;
65583;SDS011;62116;43.582;1.470;2022-07-22T11:07:54;8.35;;;4.82;;
65583;SDS011;62116;43.582;1.470;2022-07-22T11:10:20;15.20;;;4.60;;
65583;SDS011;62116;43.582;1.470;2022-07-22T11:12:46;10.20;;;4.15;;
65583;SDS011;62116;43.582;1.470;2022-07-22T11:15:13;11.52;;;4.60;;
65583;SDS011;62116;43.582;1.470;2022-07-22T11:17:38;13.57;;;4.40;;
65583;SDS011;62116;43.582;1.470;2022-07-22T11:20:05;8.40;;;4.60;;
65583;SDS011;62116;43.582;1.470;2022-07-22T11:22:33;11.90;;;4.70;;
65583;SDS011;62116;43.582;1.470;2022-07-22T11:25:03;9.65;;;4.57;;
65583;SDS011;62116;43.582;1.470;2022-07-22T11:27:30;9.88;;;4.60;;
65583;SDS011;62116;43.582;1.470;2022-07-22T11:29:56;8.88;;;4.47;;
65583;SDS011;62116;43.582;1.470;2022-07-22T11:32:23;13.23;;;5.10;;
65583;SDS011;62116;43.582;1.470;2022-07-22T11:34:51;9.30;;;4.55;;
65583;SDS011;62116;43.582;1.470;2022-07-22T11:37:18;10.65;;;4.65;;
65583;SDS011;62116;43.582;1.470;2022-07-22T11:39:45;9.00;;;4.35;;
65583;SDS011;62116;43.582;1.470;2022-07-22T11:42:11;9.77;;;4.20;;
65583;SDS011;62116;43.582;1.470;2022-07-22T11:44:38;16.08;;;4.70;;
65583;SDS011;62116;43.582;1.470;2022-07-22T11:47:05;9.38;;;4.40;;
65583;SDS011;62116;43.582;1.470;2022-07-22T11:49:33;9.02;;;4.32;;
65583;SDS011;62116;43.582;1.470;2022-07-22T11:52:03;13.25;;;4.15;;
65583;SDS011;62116;43.582;1.470;2022-07-22T11:54:32;6.50;;;3.80;;
65583;SDS011;62116;43.582;1.470;2022-07-22T11:56:58;11.77;;;4.28;;
65583;SDS011;62116;43.582;1.470;2022-07-22T11:59:24;10.18;;;3.90;;
65583;SDS011;62116;43.582;1.470;2022-07-22T12:01:49;12.60;;;4.53;;
65583;SDS011;62116;43.582;1.470;2022-07-22T12:04:16;7.28;;;3.83;;
65583;SDS011;62116;43.582;1.470;2022-07-22T12:06:43;12.60;;;4.40;;
65583;SDS011;62116;43.582;1.470;2022-07-22T12:11:38;9.27;;;4.05;;
65583;SDS011;62116;43.582;1.470;2022-07-22T12:14:08;10.05;;;3.90;;
65583;SDS011;62116;43.582;1.470;2022-07-22T12:16:35;9.30;;;4.05;;
65583;SDS011;62116;43.582;1.470;2022-07-22T12:19:06;9.10;;;3.55;;
65583;SDS011;62116;43.582;1.470;2022-07-22T12:21:33;7.68;;;3.70;;
65583;SDS011;62116;43.582;1.470;2022-07-22T12:24:15;9.13;;;3.90;;
65583;SDS011;62116;43.582;1.470;2022-07-22T12:26:47;10.63;;;4.00;;
65583;SDS011;62116;43.582;1.470;2022-07-22T12:29:14;9.20;;;3.80;;
65583;SDS011;62116;43.582;1.470;2022-07-22T12:31:49;11.18;;;3.85;;
65583;SDS011;62116;43.582;1.470;2022-07-22T12:34:16;7.15;;;3.75;;
65583;SDS011;62116;43.582;1.470;2022-07-22T12:36:53;10.82;;;3.65;;
65583;SDS011;62116;43.582;1.470;2022-07-22T12:39:18;8.63;;;3.75;;
65583;SDS011;62116;43.582;1.470;2022-07-22T12:41:45;9.63;;;3.70;;
65583;SDS011;62116;43.582;1.470;2022-07-22T12:44:16;10.15;;;3.60;;
65583;SDS011;62116;43.582;1.470;2022-07-22T12:46:47;9.02;;;3.88;;
65583;SDS011;62116;43.582;1.470;2022-07-22T12:49:14;10.52;;;3.97;;
65583;SDS011;62116;43.582;1.470;2022-07-22T12:51:42;10.38;;;3.92;;
65583;SDS011;62116;43.582;1.470;2022-07-22T12:54:07;11.35;;;3.90;;
65583;SDS011;62116;43.582;1.470;2022-07-22T12:56:32;8.20;;;3.70;;
65583;SDS011;62116;43.582;1.470;2022-07-22T12:58:58;8.60;;;3.60;;
65583;SDS011;62116;43.582;1.470;2022-07-22T13:01:24;8.38;;;3.78;;
65583;SDS011;62116;43.582;1.470;2022-07-22T13:03:49;8.10;;;3.55;;
65583;SDS011;62116;43.582;1.470;2022-07-22T13:06:15;9.73;;;3.95;;
65583;SDS011;62116;43.582;1.470;2022-07-22T13:08:40;12.45;;;3.90;;
65583;SDS011;62116;43.582;1.470;2022-07-22T13:11:06;11.02;;;4.13;;
65583;SDS011;62116;43.582;1.470;2022-07-22T13:13:31;7.28;;;3.85;;
65583;SDS011;62116;43.582;1.470;2022-07-22T13:15:56;9.02;;;3.85;;
65583;SDS011;62116;43.582;1.470;2022-07-22T13:18:22;9.70;;;3.95;;
65583;SDS011;62116;43.582;1.470;2022-07-22T13:20:47;11.25;;;4.13;;
65583;SDS011;62116;43.582;1.470;2022-07-22T13:23:13;10.55;;;3.90;;
65583;SDS011;62116;43.582;1.470;2022-07-22T13:25:38;8.25;;;3.80;;
65583;SDS011;62116;43.582;1.470;2022-07-22T13:28:04;7.78;;;3.90;;
65583;SDS011;62116;43.582;1.470;2022-07-22T13:30:29;9.48;;;3.90;;
65583;SDS011;62116;43.582;1.470;2022-07-22T13:32:55;10.27;;;3.78;;
65583;SDS011;62116;43.582;1.470;2022-07-22T13:35:20;6.82;;;3.90;;
65583;SDS011;62116;43.582;1.470;2022-07-22T13:37:46;8.20;;;3.90;;
65583;SDS011;62116;43.582;1.470;2022-07-22T13:40:12;8.93;;;3.92;;
65583;SDS011;62116;43.582;1.470;2022-07-22T13:42:38;8.48;;;4.05;;
65583;SDS011;62116;43.582;1.470;2022-07-22T13:45:04;12.35;;;4.22;;
65583;SDS011;62116;43.582;1.470;2022-07-22T13:47:30;8.60;;;3.90;;
65583;SDS011;62116;43.582;1.470;2022-07-22T13:49:56;8.82;;;4.00;;
65583;SDS011;62116;43.582;1.470;2022-07-22T13:52:22;8.85;;;4.10;;
65583;SDS011;62116;43.582;1.470;2022-07-22T13:54:47;11.45;;;4.22;;
65583;SDS011;62116;43.582;1.470;2022-07-22T13:57:14;11.20;;;4.28;;
65583;SDS011;62116;43.582;1.470;2022-07-22T13:59:40;9.10;;;4.38;;
65583;SDS011;62116;43.582;1.470;2022-07-22T14:02:05;11.20;;;4.78;;
65583;SDS011;62116;43.582;1.470;2022-07-22T14:04:31;9.48;;;4.30;;
65583;SDS011;62116;43.582;1.470;2022-07-22T14:06:56;13.13;;;4.60;;
65583;SDS011;62116;43.582;1.470;2022-07-22T14:09:22;7.20;;;4.10;;
65583;SDS011;62116;43.582;1.470;2022-07-22T14:11:47;10.05;;;4.55;;
65583;SDS011;62116;43.582;1.470;2022-07-22T14:14:13;12.77;;;4.32;;
65583;SDS011;62116;43.582;1.470;2022-07-22T14:16:39;7.30;;;4.25;;
65583;SDS011;62116;43.582;1.470;2022-07-22T14:19:05;10.95;;;4.70;;
65583;SDS011;62116;43.582;1.470;2022-07-22T14:21:31;6.70;;;4.03;;
65583;SDS011;62116;43.582;1.470;2022-07-22T14:23:57;10.52;;;4.60;;
65583;SDS011;62116;43.582;1.470;2022-07-22T14:26:23;10.88;;;4.63;;
65583;SDS011;62116;43.582;1.470;2022-07-22T14:28:48;6.75;;;4.60;;
65583;SDS011;62116;43.582;1.470;2022-07-22T14:31:14;10.23;;;4.57;;
65583;SDS011;62116;43.582;1.470;2022-07-22T14:33:40;9.48;;;4.88;;
65583;SDS011;62116;43.582;1.470;2022-07-22T14:36:05;7.95;;;4.65;;
65583;SDS011;62116;43.582;1.470;2022-07-22T14:38:31;8.65;;;4.28;;
65583;SDS011;62116;43.582;1.470;2022-07-22T14:40:56;8.35;;;4.25;;
65583;SDS011;62116;43.582;1.470;2022-07-22T14:43:22;9.60;;;4.32;;
65583;SDS011;62116;43.582;1.470;2022-07-22T14:45:47;8.20;;;4.32;;
65583;SDS011;62116;43.582;1.470;2022-07-22T14:48:13;9.55;;;4.10;;
65583;SDS011;62116;43.582;1.470;2022-07-22T14:50:38;8.85;;;4.47;;
65583;SDS011;62116;43.582;1.470;2022-07-22T14:53:04;9.50;;;4.53;;
65583;SDS011;62116;43.582;1.470;2022-07-22T14:55:29;8.55;;;4.50;;
65583;SDS011;62116;43.582;1.470;2022-07-22T14:57:54;9.65;;;4.50;;
65583;SDS011;62116;43.582;1.470;2022-07-22T15:00:20;6.03;;;4.30;;
65583;SDS011;62116;43.582;1.470;2022-07-22T15:02:45;7.60;;;4.63;;